sensor_id;sensor_type;location;lat;lon;timestamp;P1;durP1;ratioP1;P2;durP2;ratioP2
64367;SDS011;50692;53.314;-6.300;2023-04-24T00:00:34;8.60;;;7.00;;
64367;SDS011;50692;53.314;-6.300;2023-04-24T00:03:19;8.37;;;6.97;;
64367;SDS011;50692;53.314;-6.300;2023-04-24T00:06:06;8.83;;;6.00;;
64367;SDS011;50692;53.314;-6.300;2023-04-24T00:08:53;9.00;;;6.53;;
64367;SDS011;50692;53.314;-6.300;2023-04-24T00:11:39;9.20;;;6.60;;
64367;SDS011;50692;53.314;-6.300;2023-04-24T00:14:25;8.83;;;6.77;;
64367;SDS011;50692;53.314;-6.300;2023-04-24T00:17:10;7.57;;;6.40;;
64367;SDS011;50692;53.314;-6.300;2023-04-24T00:19:56;9.20;;;6.67;;
64367;SDS011;50692;53.314;-6.300;2023-04-24T00:22:46;8.60;;;6.90;;
64367;SDS011;50692;53.314;-6.300;2023-04-24T00:25:32;10.80;;;6.93;;
64367;SDS011;50692;53.314;-6.300;2023-04-24T00:28:17;10.50;;;7.40;;
64367;SDS011;50692;53.314;-6.300;2023-04-24T00:31:03;10.47;;;7.63;;
64367;SDS011;50692;53.314;-6.300;2023-04-24T00:33:50;10.67;;;9.17;;
64367;SDS011;50692;53.314;-6.300;2023-04-24T00:36:36;14.80;;;11.63;;
64367;SDS011;50692;53.314;-6.300;2023-04-24T00:39:22;19.00;;;15.10;;
64367;SDS011;50692;53.314;-6.300;2023-04-24T00:42:08;20.63;;;17.30;;
64367;SDS011;50692;53.314;-6.300;2023-04-24T00:44:54;17.10;;;15.30;;
64367;SDS011;50692;53.314;-6.300;2023-04-24T00:47:41;14.23;;;11.43;;
64367;SDS011;50692;53.314;-6.300;2023-04-24T00:50:28;11.67;;;9.67;;
64367;SDS011;50692;53.314;-6.300;2023-04-24T00:53:14;10.50;;;7.80;;
64367;SDS011;50692;53.314;-6.300;2023-04-24T00:56:00;10.57;;;7.40;;
64367;SDS011;50692;53.314;-6.300;2023-04-24T00:58:46;9.33;;;7.00;;
64367;SDS011;50692;53.314;-6.300;2023-04-24T01:01:32;9.90;;;7.17;;
64367;SDS011;50692;53.314;-6.300;2023-04-24T01:04:19;11.20;;;7.20;;
64367;SDS011;50692;53.314;-6.300;2023-04-24T01:07:05;9.13;;;7.00;;
64367;SDS011;50692;53.314;-6.300;2023-04-24T01:09:56;9.00;;;6.23;;
64367;SDS011;50692;53.314;-6.300;2023-04-24T01:12:41;10.73;;;6.17;;
64367;SDS011;50692;53.314;-6.300;2023-04-24T01:15:27;9.50;;;6.23;;
64367;SDS011;50692;53.314;-6.300;2023-04-24T01:18:13;8.40;;;5.73;;
64367;SDS011;50692;53.314;-6.300;2023-04-24T01:21:00;9.00;;;5.60;;
64367;SDS011;50692;53.314;-6.300;2023-04-24T01:23:49;7.15;;;5.03;;
64367;SDS011;50692;53.314;-6.300;2023-04-24T01:26:35;7.93;;;5.20;;
64367;SDS011;50692;53.314;-6.300;2023-04-24T01:29:21;10.13;;;5.53;;
64367;SDS011;50692;53.314;-6.300;2023-04-24T01:32:07;8.43;;;5.53;;
64367;SDS011;50692;53.314;-6.300;2023-04-24T01:34:54;5.73;;;5.10;;
64367;SDS011;50692;53.314;-6.300;2023-04-24T01:37:40;7.93;;;5.60;;
64367;SDS011;50692;53.314;-6.300;2023-04-24T01:40:26;8.07;;;5.47;;
64367;SDS011;50692;53.314;-6.300;2023-04-24T01:43:12;8.77;;;5.60;;
64367;SDS011;50692;53.314;-6.300;2023-04-24T01:45:58;11.07;;;6.83;;
64367;SDS011;50692;53.314;-6.300;2023-04-24T01:48:44;9.50;;;6.70;;
64367;SDS011;50692;53.314;-6.300;2023-04-24T01:51:31;11.80;;;7.60;;
64367;SDS011;50692;53.314;-6.300;2023-04-24T01:54:17;10.83;;;7.17;;
64367;SDS011;50692;53.314;-6.300;2023-04-24T01:57:02;9.00;;;6.83;;
64367;SDS011;50692;53.314;-6.300;2023-04-24T01:59:48;12.67;;;7.37;;
64367;SDS011;50692;53.314;-6.300;2023-04-24T02:02:35;11.70;;;6.83;;
64367;SDS011;50692;53.314;-6.300;2023-04-24T02:05:21;9.73;;;7.23;;
64367;SDS011;50692;53.314;-6.300;2023-04-24T02:08:06;10.47;;;7.67;;
64367;SDS011;50692;53.314;-6.300;2023-04-24T02:10:52;14.60;;;7.47;;
64367;SDS011;50692;53.314;-6.300;2023-04-24T02:13:38;9.43;;;6.90;;
64367;SDS011;50692;53.314;-6.300;2023-04-24T02:16:24;9.83;;;7.30;;
64367;SDS011;50692;53.314;-6.300;2023-04-24T02:19:10;10.00;;;7.10;;
64367;SDS011;50692;53.314;-6.300;2023-04-24T02:21:56;10.00;;;6.60;;
64367;SDS011;50692;53.314;-6.300;2023-04-24T02:24:41;9.60;;;6.33;;
64367;SDS011;50692;53.314;-6.300;2023-04-24T02:27:27;9.80;;;6.17;;
64367;SDS011;50692;53.314;-6.300;2023-04-24T02:30:13;9.47;;;6.40;;
64367;SDS011;50692;53.314;-6.300;2023-04-24T02:32:59;7.43;;;5.83;;
64367;SDS011;50692;53.314;-6.300;2023-04-24T02:35:45;10.03;;;6.33;;
64367;SDS011;50692;53.314;-6.300;2023-04-24T02:38:31;11.37;;;6.43;;
64367;SDS011;50692;53.314;-6.300;2023-04-24T02:41:17;8.90;;;6.40;;
64367;SDS011;50692;53.314;-6.300;2023-04-24T02:44:02;9.70;;;6.17;;
64367;SDS011;50692;53.314;-6.300;2023-04-24T02:46:48;12.27;;;6.87;;
64367;SDS011;50692;53.314;-6.300;2023-04-24T02:49:34;9.43;;;6.93;;
64367;SDS011;50692;53.314;-6.300;2023-04-24T02:52:20;9.63;;;6.00;;
64367;SDS011;50692;53.314;-6.300;2023-04-24T02:55:06;9.93;;;6.73;;
64367;SDS011;50692;53.314;-6.300;2023-04-24T02:57:53;11.20;;;6.47;;
64367;SDS011;50692;53.314;-6.300;2023-04-24T03:00:39;9.00;;;6.40;;
64367;SDS011;50692;53.314;-6.300;2023-04-24T03:03:25;9.67;;;6.27;;
64367;SDS011;50692;53.314;-6.300;2023-04-24T03:06:11;9.77;;;6.33;;
64367;SDS011;50692;53.314;-6.300;2023-04-24T03:08:56;12.87;;;7.33;;
64367;SDS011;50692;53.314;-6.300;2023-04-24T03:11:42;8.60;;;5.90;;
64367;SDS011;50692;53.314;-6.300;2023-04-24T03:14:28;9.60;;;6.40;;
64367;SDS011;50692;53.314;-6.300;2023-04-24T03:17:16;8.87;;;6.10;;
64367;SDS011;50692;53.314;-6.300;2023-04-24T03:20:02;10.07;;;6.37;;
64367;SDS011;50692;53.314;-6.300;2023-04-24T03:22:50;10.07;;;6.53;;
64367;SDS011;50692;53.314;-6.300;2023-04-24T03:25:36;9.67;;;5.77;;
64367;SDS011;50692;53.314;-6.300;2023-04-24T03:28:22;8.67;;;5.70;;
64367;SDS011;50692;53.314;-6.300;2023-04-24T03:31:08;11.43;;;6.00;;
64367;SDS011;50692;53.314;-6.300;2023-04-24T03:33:53;8.87;;;5.73;;
64367;SDS011;50692;53.314;-6.300;2023-04-24T03:36:39;8.17;;;5.60;;
64367;SDS011;50692;53.314;-6.300;2023-04-24T03:39:25;7.80;;;5.50;;
64367;SDS011;50692;53.314;-6.300;2023-04-24T03:42:12;9.30;;;6.40;;
64367;SDS011;50692;53.314;-6.300;2023-04-24T03:44:58;9.97;;;6.00;;
64367;SDS011;50692;53.314;-6.300;2023-04-24T03:47:44;12.40;;;6.83;;
64367;SDS011;50692;53.314;-6.300;2023-04-24T03:50:29;8.77;;;6.53;;
64367;SDS011;50692;53.314;-6.300;2023-04-24T03:53:15;10.77;;;7.70;;
64367;SDS011;50692;53.314;-6.300;2023-04-24T03:56:01;9.37;;;7.03;;
64367;SDS011;50692;53.314;-6.300;2023-04-24T03:58:47;10.27;;;6.50;;
64367;SDS011;50692;53.314;-6.300;2023-04-24T04:01:33;9.67;;;6.97;;
64367;SDS011;50692;53.314;-6.300;2023-04-24T04:04:22;9.43;;;6.90;;
64367;SDS011;50692;53.314;-6.300;2023-04-24T04:07:07;9.03;;;7.03;;
64367;SDS011;50692;53.314;-6.300;2023-04-24T04:09:53;11.67;;;7.20;;
64367;SDS011;50692;53.314;-6.300;2023-04-24T04:12:39;10.83;;;7.23;;
64367;SDS011;50692;53.314;-6.300;2023-04-24T04:15:25;10.40;;;7.00;;
64367;SDS011;50692;53.314;-6.300;2023-04-24T04:18:11;9.87;;;7.00;;
64367;SDS011;50692;53.314;-6.300;2023-04-24T04:20:57;6.70;;;4.80;;
64367;SDS011;50692;53.314;-6.300;2023-04-24T04:23:42;5.93;;;3.63;;
64367;SDS011;50692;53.314;-6.300;2023-04-24T04:26:30;4.13;;;3.10;;
64367;SDS011;50692;53.314;-6.300;2023-04-24T04:29:17;4.37;;;2.77;;
64367;SDS011;50692;53.314;-6.300;2023-04-24T04:32:03;5.33;;;2.50;;
64367;SDS011;50692;53.314;-6.300;2023-04-24T04:34:49;4.37;;;2.93;;
64367;SDS011;50692;53.314;-6.300;2023-04-24T04:37:38;5.82;;;2.80;;
64367;SDS011;50692;53.314;-6.300;2023-04-24T04:40:25;6.13;;;2.57;;
64367;SDS011;50692;53.314;-6.300;2023-04-24T04:43:12;5.27;;;2.60;;
64367;SDS011;50692;53.314;-6.300;2023-04-24T04:46:01;3.63;;;2.40;;
64367;SDS011;50692;53.314;-6.300;2023-04-24T04:48:48;5.13;;;2.77;;
64367;SDS011;50692;53.314;-6.300;2023-04-24T04:51:34;4.43;;;2.60;;
64367;SDS011;50692;53.314;-6.300;2023-04-24T04:54:20;7.60;;;4.83;;
64367;SDS011;50692;53.314;-6.300;2023-04-24T04:57:06;7.57;;;3.20;;
64367;SDS011;50692;53.314;-6.300;2023-04-24T04:59:52;4.73;;;2.10;;
64367;SDS011;50692;53.314;-6.300;2023-04-24T05:02:38;9.07;;;2.37;;
64367;SDS011;50692;53.314;-6.300;2023-04-24T05:05:24;4.17;;;1.50;;
64367;SDS011;50692;53.314;-6.300;2023-04-24T05:08:10;6.17;;;1.40;;
64367;SDS011;50692;53.314;-6.300;2023-04-24T05:10:56;2.07;;;1.10;;
64367;SDS011;50692;53.314;-6.300;2023-04-24T05:13:41;1.70;;;1.20;;
64367;SDS011;50692;53.314;-6.300;2023-04-24T05:16:27;4.33;;;1.47;;
64367;SDS011;50692;53.314;-6.300;2023-04-24T05:19:13;4.73;;;1.97;;
64367;SDS011;50692;53.314;-6.300;2023-04-24T05:22:00;6.00;;;2.17;;
64367;SDS011;50692;53.314;-6.300;2023-04-24T05:24:48;4.03;;;1.93;;
64367;SDS011;50692;53.314;-6.300;2023-04-24T05:27:34;6.57;;;2.20;;
64367;SDS011;50692;53.314;-6.300;2023-04-24T05:30:20;3.63;;;1.90;;
64367;SDS011;50692;53.314;-6.300;2023-04-24T05:33:06;3.93;;;2.00;;
64367;SDS011;50692;53.314;-6.300;2023-04-24T05:35:52;4.63;;;1.97;;
64367;SDS011;50692;53.314;-6.300;2023-04-24T05:38:37;4.37;;;2.00;;
64367;SDS011;50692;53.314;-6.300;2023-04-24T05:41:23;5.33;;;1.90;;
64367;SDS011;50692;53.314;-6.300;2023-04-24T05:44:09;4.90;;;2.07;;
64367;SDS011;50692;53.314;-6.300;2023-04-24T05:46:55;3.57;;;2.20;;
64367;SDS011;50692;53.314;-6.300;2023-04-24T05:49:41;6.30;;;2.20;;
64367;SDS011;50692;53.314;-6.300;2023-04-24T05:52:26;4.07;;;1.93;;
64367;SDS011;50692;53.314;-6.300;2023-04-24T05:55:12;7.67;;;2.10;;
64367;SDS011;50692;53.314;-6.300;2023-04-24T05:57:58;3.57;;;1.93;;
64367;SDS011;50692;53.314;-6.300;2023-04-24T06:00:44;2.87;;;1.70;;
64367;SDS011;50692;53.314;-6.300;2023-04-24T06:03:32;5.27;;;2.20;;
64367;SDS011;50692;53.314;-6.300;2023-04-24T06:06:18;12.23;;;2.37;;
64367;SDS011;50692;53.314;-6.300;2023-04-24T06:09:04;2.60;;;2.03;;
64367;SDS011;50692;53.314;-6.300;2023-04-24T06:11:50;5.77;;;2.23;;
64367;SDS011;50692;53.314;-6.300;2023-04-24T06:14:39;6.45;;;1.67;;
64367;SDS011;50692;53.314;-6.300;2023-04-24T06:17:25;4.57;;;1.53;;
64367;SDS011;50692;53.314;-6.300;2023-04-24T06:20:11;6.63;;;1.80;;
64367;SDS011;50692;53.314;-6.300;2023-04-24T06:22:57;5.07;;;1.93;;
64367;SDS011;50692;53.314;-6.300;2023-04-24T06:25:43;7.70;;;2.10;;
64367;SDS011;50692;53.314;-6.300;2023-04-24T06:28:28;5.93;;;2.10;;
64367;SDS011;50692;53.314;-6.300;2023-04-24T06:31:14;3.50;;;1.87;;
64367;SDS011;50692;53.314;-6.300;2023-04-24T06:34:01;4.97;;;2.30;;
64367;SDS011;50692;53.314;-6.300;2023-04-24T06:36:47;4.47;;;2.27;;
64367;SDS011;50692;53.314;-6.300;2023-04-24T06:39:33;1.97;;;1.60;;
64367;SDS011;50692;53.314;-6.300;2023-04-24T06:42:18;2.83;;;1.60;;
64367;SDS011;50692;53.314;-6.300;2023-04-24T06:45:07;2.63;;;1.87;;
64367;SDS011;50692;53.314;-6.300;2023-04-24T06:47:53;2.87;;;1.60;;
64367;SDS011;50692;53.314;-6.300;2023-04-24T06:50:39;4.73;;;1.93;;
64367;SDS011;50692;53.314;-6.300;2023-04-24T06:53:24;5.10;;;2.30;;
64367;SDS011;50692;53.314;-6.300;2023-04-24T06:56:10;4.33;;;1.87;;
64367;SDS011;50692;53.314;-6.300;2023-04-24T06:58:56;3.60;;;1.83;;
64367;SDS011;50692;53.314;-6.300;2023-04-24T07:01:42;3.73;;;1.80;;
64367;SDS011;50692;53.314;-6.300;2023-04-24T07:04:28;3.57;;;1.63;;
64367;SDS011;50692;53.314;-6.300;2023-04-24T07:07:14;3.43;;;1.73;;
64367;SDS011;50692;53.314;-6.300;2023-04-24T07:10:00;2.93;;;1.50;;
64367;SDS011;50692;53.314;-6.300;2023-04-24T07:12:46;3.60;;;1.77;;
64367;SDS011;50692;53.314;-6.300;2023-04-24T07:15:32;3.60;;;1.53;;
64367;SDS011;50692;53.314;-6.300;2023-04-24T07:18:19;3.17;;;1.70;;
64367;SDS011;50692;53.314;-6.300;2023-04-24T07:21:08;4.10;;;1.85;;
64367;SDS011;50692;53.314;-6.300;2023-04-24T07:23:54;3.73;;;2.73;;
64367;SDS011;50692;53.314;-6.300;2023-04-24T07:26:40;3.60;;;1.90;;
64367;SDS011;50692;53.314;-6.300;2023-04-24T07:29:26;3.20;;;2.10;;
64367;SDS011;50692;53.314;-6.300;2023-04-24T07:32:12;5.33;;;2.83;;
64367;SDS011;50692;53.314;-6.300;2023-04-24T07:34:58;3.60;;;2.40;;
64367;SDS011;50692;53.314;-6.300;2023-04-24T07:37:44;4.60;;;2.33;;
64367;SDS011;50692;53.314;-6.300;2023-04-24T07:40:31;4.73;;;2.00;;
64367;SDS011;50692;53.314;-6.300;2023-04-24T07:43:17;3.40;;;2.10;;
64367;SDS011;50692;53.314;-6.300;2023-04-24T07:46:03;3.47;;;2.23;;
64367;SDS011;50692;53.314;-6.300;2023-04-24T07:48:49;4.27;;;2.00;;
64367;SDS011;50692;53.314;-6.300;2023-04-24T07:51:35;5.93;;;2.03;;
64367;SDS011;50692;53.314;-6.300;2023-04-24T07:54:23;4.23;;;1.60;;
64367;SDS011;50692;53.314;-6.300;2023-04-24T07:57:09;3.97;;;1.97;;
64367;SDS011;50692;53.314;-6.300;2023-04-24T07:59:55;4.30;;;1.93;;
64367;SDS011;50692;53.314;-6.300;2023-04-24T08:02:41;3.07;;;1.90;;
64367;SDS011;50692;53.314;-6.300;2023-04-24T08:05:26;4.20;;;2.10;;
64367;SDS011;50692;53.314;-6.300;2023-04-24T08:08:13;3.57;;;1.80;;
64367;SDS011;50692;53.314;-6.300;2023-04-24T08:10:59;3.00;;;1.50;;
64367;SDS011;50692;53.314;-6.300;2023-04-24T08:13:45;4.50;;;1.73;;
64367;SDS011;50692;53.314;-6.300;2023-04-24T08:16:32;4.73;;;1.67;;
64367;SDS011;50692;53.314;-6.300;2023-04-24T08:19:18;3.77;;;1.80;;
64367;SDS011;50692;53.314;-6.300;2023-04-24T08:22:05;2.53;;;1.50;;
64367;SDS011;50692;53.314;-6.300;2023-04-24T08:24:51;6.87;;;1.70;;
64367;SDS011;50692;53.314;-6.300;2023-04-24T08:27:37;4.20;;;1.70;;
64367;SDS011;50692;53.314;-6.300;2023-04-24T08:30:24;5.37;;;3.50;;
64367;SDS011;50692;53.314;-6.300;2023-04-24T08:33:10;3.73;;;2.00;;
64367;SDS011;50692;53.314;-6.300;2023-04-24T08:35:55;6.30;;;2.00;;
64367;SDS011;50692;53.314;-6.300;2023-04-24T08:38:42;4.57;;;1.73;;
64367;SDS011;50692;53.314;-6.300;2023-04-24T08:41:27;3.50;;;2.00;;
64367;SDS011;50692;53.314;-6.300;2023-04-24T08:44:14;4.43;;;1.97;;
64367;SDS011;50692;53.314;-6.300;2023-04-24T08:47:01;6.63;;;2.20;;
64367;SDS011;50692;53.314;-6.300;2023-04-24T08:49:48;3.57;;;2.00;;
64367;SDS011;50692;53.314;-6.300;2023-04-24T08:52:35;4.57;;;2.10;;
64367;SDS011;50692;53.314;-6.300;2023-04-24T08:55:22;4.30;;;1.90;;
64367;SDS011;50692;53.314;-6.300;2023-04-24T08:58:10;2.60;;;1.40;;
64367;SDS011;50692;53.314;-6.300;2023-04-24T09:00:56;3.77;;;1.50;;
64367;SDS011;50692;53.314;-6.300;2023-04-24T09:03:42;3.63;;;1.73;;
64367;SDS011;50692;53.314;-6.300;2023-04-24T09:06:29;6.00;;;1.77;;
64367;SDS011;50692;53.314;-6.300;2023-04-24T09:09:17;3.87;;;1.77;;
64367;SDS011;50692;53.314;-6.300;2023-04-24T09:12:04;3.47;;;2.07;;
64367;SDS011;50692;53.314;-6.300;2023-04-24T09:14:50;3.60;;;1.73;;
64367;SDS011;50692;53.314;-6.300;2023-04-24T09:17:36;5.50;;;2.07;;
64367;SDS011;50692;53.314;-6.300;2023-04-24T09:20:23;2.90;;;1.90;;
64367;SDS011;50692;53.314;-6.300;2023-04-24T09:23:10;4.23;;;1.70;;
64367;SDS011;50692;53.314;-6.300;2023-04-24T09:26:02;5.33;;;2.10;;
64367;SDS011;50692;53.314;-6.300;2023-04-24T09:28:50;3.88;;;1.77;;
64367;SDS011;50692;53.314;-6.300;2023-04-24T09:31:36;5.03;;;2.10;;
64367;SDS011;50692;53.314;-6.300;2023-04-24T09:34:22;4.13;;;2.23;;
64367;SDS011;50692;53.314;-6.300;2023-04-24T09:37:09;3.57;;;1.70;;
64367;SDS011;50692;53.314;-6.300;2023-04-24T09:40:17;3.93;;;1.90;;
64367;SDS011;50692;53.314;-6.300;2023-04-24T09:43:05;4.67;;;2.17;;
64367;SDS011;50692;53.314;-6.300;2023-04-24T09:45:57;3.20;;;1.90;;
64367;SDS011;50692;53.314;-6.300;2023-04-24T09:48:44;3.33;;;1.70;;
64367;SDS011;50692;53.314;-6.300;2023-04-24T09:51:33;2.50;;;1.50;;
64367;SDS011;50692;53.314;-6.300;2023-04-24T09:54:21;4.40;;;2.30;;
64367;SDS011;50692;53.314;-6.300;2023-04-24T09:57:07;4.27;;;1.80;;
64367;SDS011;50692;53.314;-6.300;2023-04-24T09:59:54;5.73;;;2.17;;
64367;SDS011;50692;53.314;-6.300;2023-04-24T10:02:40;5.07;;;1.90;;
64367;SDS011;50692;53.314;-6.300;2023-04-24T10:05:30;6.00;;;1.80;;
64367;SDS011;50692;53.314;-6.300;2023-04-24T10:08:21;3.67;;;2.10;;
64367;SDS011;50692;53.314;-6.300;2023-04-24T10:11:07;3.57;;;1.83;;
64367;SDS011;50692;53.314;-6.300;2023-04-24T10:13:53;2.93;;;1.67;;
64367;SDS011;50692;53.314;-6.300;2023-04-24T10:16:41;3.50;;;1.73;;
64367;SDS011;50692;53.314;-6.300;2023-04-24T10:19:27;3.23;;;1.77;;
64367;SDS011;50692;53.314;-6.300;2023-04-24T10:22:15;1.87;;;1.60;;
64367;SDS011;50692;53.314;-6.300;2023-04-24T10:25:03;5.27;;;2.20;;
64367;SDS011;50692;53.314;-6.300;2023-04-24T10:27:51;4.03;;;2.07;;
64367;SDS011;50692;53.314;-6.300;2023-04-24T10:30:38;3.43;;;1.93;;
64367;SDS011;50692;53.314;-6.300;2023-04-24T10:33:28;5.03;;;1.67;;
64367;SDS011;50692;53.314;-6.300;2023-04-24T10:36:16;6.40;;;1.93;;
64367;SDS011;50692;53.314;-6.300;2023-04-24T10:39:03;5.03;;;2.23;;
64367;SDS011;50692;53.314;-6.300;2023-04-24T10:41:53;4.57;;;1.60;;
64367;SDS011;50692;53.314;-6.300;2023-04-24T10:44:42;6.07;;;2.00;;
64367;SDS011;50692;53.314;-6.300;2023-04-24T10:47:28;2.50;;;1.77;;
64367;SDS011;50692;53.314;-6.300;2023-04-24T10:50:14;4.63;;;2.30;;
64367;SDS011;50692;53.314;-6.300;2023-04-24T10:53:07;2.57;;;1.50;;
64367;SDS011;50692;53.314;-6.300;2023-04-24T10:56:05;4.73;;;1.73;;
64367;SDS011;50692;53.314;-6.300;2023-04-24T10:58:53;5.18;;;1.52;;
64367;SDS011;50692;53.314;-6.300;2023-04-24T11:01:39;3.00;;;1.70;;
64367;SDS011;50692;53.314;-6.300;2023-04-24T11:04:31;3.67;;;1.67;;
64367;SDS011;50692;53.314;-6.300;2023-04-24T11:07:19;3.63;;;1.67;;
64367;SDS011;50692;53.314;-6.300;2023-04-24T11:10:06;3.57;;;1.60;;
64367;SDS011;50692;53.314;-6.300;2023-04-24T11:12:52;6.53;;;2.00;;
64367;SDS011;50692;53.314;-6.300;2023-04-24T11:15:40;5.43;;;1.63;;
64367;SDS011;50692;53.314;-6.300;2023-04-24T11:18:34;5.38;;;1.75;;
64367;SDS011;50692;53.314;-6.300;2023-04-24T11:21:22;3.67;;;1.90;;
64367;SDS011;50692;53.314;-6.300;2023-04-24T11:27:15;2.87;;;1.63;;
64367;SDS011;50692;53.314;-6.300;2023-04-24T11:30:06;5.20;;;2.17;;
64367;SDS011;50692;53.314;-6.300;2023-04-24T11:32:52;3.40;;;1.80;;
64367;SDS011;50692;53.314;-6.300;2023-04-24T11:35:41;5.27;;;1.97;;
64367;SDS011;50692;53.314;-6.300;2023-04-24T11:38:27;6.13;;;2.13;;
64367;SDS011;50692;53.314;-6.300;2023-04-24T11:41:13;6.77;;;2.00;;
64367;SDS011;50692;53.314;-6.300;2023-04-24T11:43:59;6.10;;;2.42;;
64367;SDS011;50692;53.314;-6.300;2023-04-24T11:46:45;5.60;;;1.98;;
64367;SDS011;50692;53.314;-6.300;2023-04-24T11:49:31;4.65;;;1.88;;
64367;SDS011;50692;53.314;-6.300;2023-04-24T11:52:17;5.05;;;1.50;;
64367;SDS011;50692;53.314;-6.300;2023-04-24T11:55:03;4.97;;;2.20;;
64367;SDS011;50692;53.314;-6.300;2023-04-24T11:57:49;4.03;;;1.52;;
64367;SDS011;50692;53.314;-6.300;2023-04-24T12:00:38;3.58;;;1.90;;
64367;SDS011;50692;53.314;-6.300;2023-04-24T12:03:24;6.05;;;2.22;;
64367;SDS011;50692;53.314;-6.300;2023-04-24T12:06:10;5.50;;;2.05;;
64367;SDS011;50692;53.314;-6.300;2023-04-24T12:08:57;3.13;;;2.00;;
64367;SDS011;50692;53.314;-6.300;2023-04-24T12:11:53;3.70;;;1.75;;
64367;SDS011;50692;53.314;-6.300;2023-04-24T12:14:50;5.53;;;1.90;;
64367;SDS011;50692;53.314;-6.300;2023-04-24T12:17:41;4.82;;;2.00;;
64367;SDS011;50692;53.314;-6.300;2023-04-24T12:20:28;4.32;;;2.10;;
64367;SDS011;50692;53.314;-6.300;2023-04-24T12:23:15;4.05;;;1.73;;
64367;SDS011;50692;53.314;-6.300;2023-04-24T12:26:05;6.00;;;2.13;;
64367;SDS011;50692;53.314;-6.300;2023-04-24T12:28:51;6.50;;;2.00;;
64367;SDS011;50692;53.314;-6.300;2023-04-24T12:31:37;5.68;;;2.00;;
64367;SDS011;50692;53.314;-6.300;2023-04-24T12:34:23;3.55;;;1.90;;
64367;SDS011;50692;53.314;-6.300;2023-04-24T12:37:11;5.78;;;2.25;;
64367;SDS011;50692;53.314;-6.300;2023-04-24T12:40:06;6.45;;;1.92;;
64367;SDS011;50692;53.314;-6.300;2023-04-24T12:42:54;4.38;;;2.08;;
64367;SDS011;50692;53.314;-6.300;2023-04-24T12:45:40;3.28;;;1.60;;
64367;SDS011;50692;53.314;-6.300;2023-04-24T12:48:26;4.65;;;2.00;;
64367;SDS011;50692;53.314;-6.300;2023-04-24T12:51:12;3.75;;;1.90;;
64367;SDS011;50692;53.314;-6.300;2023-04-24T12:53:58;3.40;;;1.75;;
64367;SDS011;50692;53.314;-6.300;2023-04-24T12:56:44;4.38;;;1.95;;
64367;SDS011;50692;53.314;-6.300;2023-04-24T12:59:29;4.40;;;2.20;;
64367;SDS011;50692;53.314;-6.300;2023-04-24T13:02:15;6.50;;;2.20;;
64367;SDS011;50692;53.314;-6.300;2023-04-24T13:05:05;2.58;;;1.65;;
64367;SDS011;50692;53.314;-6.300;2023-04-24T13:07:51;4.63;;;1.92;;
64367;SDS011;50692;53.314;-6.300;2023-04-24T13:10:37;5.95;;;2.25;;
64367;SDS011;50692;53.314;-6.300;2023-04-24T13:13:23;5.88;;;2.00;;
64367;SDS011;50692;53.314;-6.300;2023-04-24T13:16:09;4.10;;;1.52;;
64367;SDS011;50692;53.314;-6.300;2023-04-24T13:18:55;4.43;;;1.60;;
64367;SDS011;50692;53.314;-6.300;2023-04-24T13:21:40;3.65;;;1.60;;
64367;SDS011;50692;53.314;-6.300;2023-04-24T13:24:26;5.68;;;1.75;;
64367;SDS011;50692;53.314;-6.300;2023-04-24T13:27:12;2.67;;;1.60;;
64367;SDS011;50692;53.314;-6.300;2023-04-24T13:29:58;4.90;;;2.00;;
64367;SDS011;50692;53.314;-6.300;2023-04-24T13:32:44;6.32;;;2.70;;
64367;SDS011;50692;53.314;-6.300;2023-04-24T13:35:30;3.47;;;1.60;;
64367;SDS011;50692;53.314;-6.300;2023-04-24T13:38:16;3.92;;;2.10;;
64367;SDS011;50692;53.314;-6.300;2023-04-24T13:41:02;2.80;;;1.42;;
64367;SDS011;50692;53.314;-6.300;2023-04-24T13:43:48;3.05;;;1.38;;
64367;SDS011;50692;53.314;-6.300;2023-04-24T13:46:33;4.47;;;1.80;;
64367;SDS011;50692;53.314;-6.300;2023-04-24T13:49:20;5.80;;;1.88;;
64367;SDS011;50692;53.314;-6.300;2023-04-24T13:52:06;5.03;;;2.53;;
64367;SDS011;50692;53.314;-6.300;2023-04-24T13:54:52;3.92;;;1.70;;
64367;SDS011;50692;53.314;-6.300;2023-04-24T13:57:38;4.00;;;1.55;;
64367;SDS011;50692;53.314;-6.300;2023-04-24T14:00:24;5.40;;;1.90;;
64367;SDS011;50692;53.314;-6.300;2023-04-24T14:03:10;5.22;;;2.00;;
64367;SDS011;50692;53.314;-6.300;2023-04-24T14:05:56;5.30;;;1.83;;
64367;SDS011;50692;53.314;-6.300;2023-04-24T14:08:42;4.40;;;1.70;;
64367;SDS011;50692;53.314;-6.300;2023-04-24T14:11:28;5.25;;;1.42;;
64367;SDS011;50692;53.314;-6.300;2023-04-24T14:14:14;5.13;;;1.70;;
64367;SDS011;50692;53.314;-6.300;2023-04-24T14:17:00;2.55;;;1.40;;
64367;SDS011;50692;53.314;-6.300;2023-04-24T14:19:46;4.40;;;1.77;;
64367;SDS011;50692;53.314;-6.300;2023-04-24T14:22:32;5.25;;;1.55;;
64367;SDS011;50692;53.314;-6.300;2023-04-24T14:25:18;3.30;;;1.60;;
64367;SDS011;50692;53.314;-6.300;2023-04-24T14:28:05;3.22;;;1.50;;
64367;SDS011;50692;53.314;-6.300;2023-04-24T14:30:51;3.50;;;1.70;;
64367;SDS011;50692;53.314;-6.300;2023-04-24T14:33:37;4.35;;;1.80;;
64367;SDS011;50692;53.314;-6.300;2023-04-24T14:36:23;3.20;;;1.65;;
64367;SDS011;50692;53.314;-6.300;2023-04-24T14:39:09;2.85;;;1.80;;
64367;SDS011;50692;53.314;-6.300;2023-04-24T14:41:55;2.92;;;1.60;;
64367;SDS011;50692;53.314;-6.300;2023-04-24T14:44:42;4.53;;;1.90;;
64367;SDS011;50692;53.314;-6.300;2023-04-24T14:47:27;3.30;;;1.67;;
64367;SDS011;50692;53.314;-6.300;2023-04-24T14:50:14;4.63;;;1.88;;
64367;SDS011;50692;53.314;-6.300;2023-04-24T14:53:00;4.93;;;2.08;;
64367;SDS011;50692;53.314;-6.300;2023-04-24T14:55:47;2.50;;;1.80;;
64367;SDS011;50692;53.314;-6.300;2023-04-24T14:58:33;2.78;;;1.42;;
64367;SDS011;50692;53.314;-6.300;2023-04-24T15:01:20;3.03;;;1.40;;
64367;SDS011;50692;53.314;-6.300;2023-04-24T15:04:06;2.75;;;1.38;;
64367;SDS011;50692;53.314;-6.300;2023-04-24T15:06:52;3.60;;;1.42;;
64367;SDS011;50692;53.314;-6.300;2023-04-24T15:09:39;4.25;;;1.48;;
64367;SDS011;50692;53.314;-6.300;2023-04-24T15:12:25;1.90;;;1.70;;
64367;SDS011;50692;53.314;-6.300;2023-04-24T15:15:11;1.98;;;1.55;;
64367;SDS011;50692;53.314;-6.300;2023-04-24T15:17:57;3.35;;;1.50;;
64367;SDS011;50692;53.314;-6.300;2023-04-24T15:20:43;3.10;;;1.30;;
64367;SDS011;50692;53.314;-6.300;2023-04-24T15:23:29;1.77;;;1.33;;
64367;SDS011;50692;53.314;-6.300;2023-04-24T15:26:14;2.70;;;1.67;;
64367;SDS011;50692;53.314;-6.300;2023-04-24T15:29:02;5.07;;;1.40;;
64367;SDS011;50692;53.314;-6.300;2023-04-24T15:31:47;2.35;;;1.40;;
64367;SDS011;50692;53.314;-6.300;2023-04-24T15:34:33;3.20;;;1.50;;
64367;SDS011;50692;53.314;-6.300;2023-04-24T15:37:20;1.88;;;1.30;;
64367;SDS011;50692;53.314;-6.300;2023-04-24T15:40:05;2.88;;;1.40;;
64367;SDS011;50692;53.314;-6.300;2023-04-24T15:42:52;1.60;;;1.20;;
64367;SDS011;50692;53.314;-6.300;2023-04-24T15:45:38;5.38;;;1.50;;
64367;SDS011;50692;53.314;-6.300;2023-04-24T15:48:23;3.03;;;1.50;;
64367;SDS011;50692;53.314;-6.300;2023-04-24T15:51:09;3.15;;;1.40;;
64367;SDS011;50692;53.314;-6.300;2023-04-24T15:53:56;4.50;;;1.73;;
64367;SDS011;50692;53.314;-6.300;2023-04-24T15:56:41;4.75;;;1.60;;
64367;SDS011;50692;53.314;-6.300;2023-04-24T15:59:28;2.60;;;1.60;;
64367;SDS011;50692;53.314;-6.300;2023-04-24T16:02:16;2.17;;;1.50;;
64367;SDS011;50692;53.314;-6.300;2023-04-24T16:05:05;3.38;;;1.30;;
64367;SDS011;50692;53.314;-6.300;2023-04-24T16:07:52;3.45;;;1.42;;
64367;SDS011;50692;53.314;-6.300;2023-04-24T16:10:38;1.63;;;1.40;;
64367;SDS011;50692;53.314;-6.300;2023-04-24T16:13:24;2.95;;;1.58;;
64367;SDS011;50692;53.314;-6.300;2023-04-24T16:16:10;4.95;;;1.50;;
64367;SDS011;50692;53.314;-6.300;2023-04-24T16:18:56;2.53;;;1.45;;
64367;SDS011;50692;53.314;-6.300;2023-04-24T16:21:42;2.78;;;1.38;;
64367;SDS011;50692;53.314;-6.300;2023-04-24T16:24:28;2.72;;;1.80;;
64367;SDS011;50692;53.314;-6.300;2023-04-24T16:27:15;2.72;;;1.77;;
64367;SDS011;50692;53.314;-6.300;2023-04-24T16:30:01;2.40;;;1.38;;